Nearby METAR Reports

 

KORH - Worcester, Massachusetts, USA
Distance from station: NW 4mi, 7km
Updated: Sat, 18-Nov-2017 12:54am EST
Overcast
Overcast
 Wind from W
Wind: W 9 mph , 15 km/h
Temperature: 28°F , -2°C
Wind Chill: 19°F , -7°C
Dew Point: 12°F , -11°C
Humidity: 51%
Barometer: 29.95 inHg , 1014.2 hPa
Clouds: Overcast
Visibility: 10 miles , 16 km
Cloud details: Overcast 11000 ft
2017/11/18 05:54 KORH 180554Z AUTO 28008KT 10SM OVC110 M02/M11 A2995 RMK AO2 SLP154 T10171106 10000 21017 56002
KBOS - Boston, Massachusetts, USA
Distance from station: ENE 42mi, 68km
Updated: Sat, 18-Nov-2017 12:54am EST
Clear
Clear
 Wind from WNW
Wind: WNW 8 mph , 13 km/h
Temperature: 34°F , 1°C
Wind Chill: 27°F , -3°C
Dew Point: 16°F , -9°C
Humidity: 48%
Barometer: 29.99 inHg , 1015.6 hPa
Clouds: Clear
Visibility: 10 miles , 16 km
2017/11/18 05:54 KBOS 180554Z 29007KT 10SM CLR 01/M09 A2999 RMK AO2 SLP155 T00061094 10039 20006 53001
 
KCQX - Chatham, Massachusetts, USA
Distance from station: SE 102mi, 164km
Updated: Sat, 18-Nov-2017 12:52am EST
Clear
Clear
 Wind from NW
Wind: NW 8 mph , 13 km/h
Temperature: 37°F , 3°C
Wind Chill: 31°F , -1°C
Dew Point: 23°F , -5°C
Humidity: 56%
Barometer: 29.96 inHg , 1014.6 hPa
Clouds: Clear
Visibility: 10 miles , 16 km
2017/11/18 05:52 KCQX 180552Z AUTO 32007KT 10SM CLR 03/M05 A2996 RMK AO2 SLP148 T00331050 10050 20033 50006
KMVY - Marthas Vineyard, Massachusetts, USA
Distance from station: SE 84mi, 135km
Updated: Sat, 18-Nov-2017 12:53am EST
Clear
Clear
 Wind from NW
Wind: NW 7 mph , 11 km/h
Temperature: 34°F , 1°C
Wind Chill: 28°F , -2°C
Dew Point: 19°F , -7°C
Humidity: 56%
Barometer: 30.00 inHg , 1015.9 hPa
Clouds: Clear
Visibility: 10 miles , 16 km
2017/11/18 05:53 KMVY 180553Z AUTO 31006KT 10SM CLR 01/M07 A3000 RMK AO2 SLP159 T00111072 10044 20011 53009
 
KPVC - Provincetown, Massachusetts, USA
Distance from station: NNW 85mi, 136km
Updated: Sat, 18-Nov-2017 12:56am EST
Clear
Clear
 Wind from NW
Wind: NW 17 mph , 28 km/h, Gust: 22 mph , 35 km/h
Temperature: 37°F , 3°C
Wind Chill: 27°F , -3°C
Dew Point: 21°F , -6°C
Humidity: 52%
Barometer: 29.98 inHg , 1015.2 hPa
Clouds: Clear
Visibility: 10 miles , 16 km
2017/11/18 05:56 KPVC 180556Z AUTO 32015G19KT 10SM CLR 03/M06 A2998 RMK AO2 SLP153 6//// T00281061 10050 20028 53006
KAQW - Savoy, Massachusetts, USA
Distance from station: NNW 66mi, 106km
Updated: Sat, 18-Nov-2017 12:52am EST
Clear
Clear
 Wind from W
Wind: W 5 mph , 7 km/h
Temperature: 21°F , -6°C
Wind Chill: 14°F , -10°C
Dew Point: 18°F , -8°C
Humidity: 86%
Barometer: 30.01 inHg , 1016.3 hPa
Clouds: Clear
Visibility: 10 miles , 16 km
2017/11/18 05:52 KAQW 180552Z AUTO 27004KT 10SM CLR M06/M08 A3001 RMK AO2 SLP173 T10561083 11011 21056 58005
 
KIZG - Fryeburg, Maine, USA
Distance from station: NNE 133mi, 214km
Updated: Sat, 18-Nov-2017 12:54am EST
Clear
Clear
 Wind from calm
Wind: Calm
Temperature: 16°F , -9°C
Dew Point: 16°F , -9°C
Humidity: 100%
Barometer: 29.95 inHg , 1014.2 hPa
Clouds: Clear
Visibility: 10 miles , 16 km
2017/11/18 05:54 KIZG 180554Z AUTO 00000KT 10SM CLR M09/M09 A2995 RMK AO2 SLP148 I1000 I6001 T10891094 11039 21094 53004
KMWN - Mt Washington, New Hampshire, USA
Distance from station: NNE 146mi, 234km
Updated: Sat, 18-Nov-2017 12:54am EST
Few Clouds
Few Clouds
 Wind from NW
Wind: NW 69 mph , 111 km/h, Gust: 79 mph , 128 km/h
Temperature: 23°F , -5°C
Wind Chill: -1°F , -18°C
Dew Point: -29°F , -34°C
Humidity: 8%
Clouds: Few Clouds
Visibility: 130 miles , 208 km
Cloud details: Few Clouds 18000 ft
Few Clouds 20000 ft
2017/11/18 05:54 KMWN 180554Z 32060G69KT 130SM FEW180 FEW200 M05/M34 RMK 4/002 11053 21116
 
KBML - Berlin, New Hampshire, USA
Distance from station: NNE 160mi, 257km
Updated: Sat, 18-Nov-2017 12:52am EST
Clear
Clear
 Wind from N
Wind: N 5 mph , 7 km/h
Temperature: 18°F , -8°C
Wind Chill: 11°F , -12°C
Dew Point: 12°F , -11°C
Humidity: 79%
Barometer: 29.92 inHg , 1013.2 hPa
Clouds: Clear
Visibility: 10 miles , 16 km
2017/11/18 05:52 KBML 180552Z AUTO 36004KT 10SM CLR M08/M11 A2992 RMK AO2 SLP151 T10781106 11044 21094 55010